Time;durP1;ratioP1;P1;durP2;ratioP2;P2;SDS_P1;SDS_P2;PMS_P1;PMS_P2;Temp;Humidity;BMP_temperature;BMP_pressure;BME280_temperature;BME280_humidity;BME280_pressure;Samples;Min_cycle;Max_cycle;Signal;HPM_P1;HPM_P2
2023/12/07 00:01:04;;;;;;;20.90;10.48;;;;;;;;;;5014280;28;20034;-80
2023/12/07 00:03:30;;;;;;;22.98;10.55;;;;;;;;;;5013920;28;20030;-80
2023/12/07 00:05:55;;;;;;;17.35;9.98;;;;;;;;;;5014215;28;20036;-79
2023/12/07 00:08:20;;;;;;;19.70;11.15;;;;;;;;;;4996655;28;20541;-79
2023/12/07 00:10:46;;;;;;;26.95;11.43;;;;;;;;;;5013715;28;20056;-80
2023/12/07 00:13:11;;;;;;;23.75;11.15;;;;;;;;;;5014052;28;20044;-80
2023/12/07 00:15:36;;;;;;;18.92;10.45;;;;;;;;;;5013700;28;20030;-80
2023/12/07 00:18:03;;;;;;;24.58;10.27;;;;;;;;;;5014642;28;20025;-79
2023/12/07 00:20:29;;;;;;;20.95;10.32;;;;;;;;;;5009237;28;20034;-79
2023/12/07 00:22:54;;;;;;;21.83;12.45;;;;;;;;;;4993006;28;20069;-79
2023/12/07 00:25:19;;;;;;;24.50;11.15;;;;;;;;;;4992406;28;20035;-79
2023/12/07 00:27:45;;;;;;;19.42;10.35;;;;;;;;;;4992565;28;20074;-79
2023/12/07 00:30:11;;;;;;;21.23;10.98;;;;;;;;;;4994236;28;20023;-79
2023/12/07 00:35:04;;;;;;;21.98;10.88;;;;;;;;;;5023252;28;20041;-79
2023/12/07 00:37:30;;;;;;;20.50;11.35;;;;;;;;;;5032033;28;20032;-78
2023/12/07 00:39:56;;;;;;;26.80;11.20;;;;;;;;;;5035473;28;20042;-80
2023/12/07 00:42:21;;;;;;;21.77;10.48;;;;;;;;;;5032954;28;20034;-79
2023/12/07 00:44:46;;;;;;;25.20;10.95;;;;;;;;;;5002117;28;20063;-79
2023/12/07 00:47:12;;;;;;;18.98;9.95;;;;;;;;;;5018398;28;20066;-80
2023/12/07 00:49:39;;;;;;;21.00;10.32;;;;;;;;;;5015727;28;20096;-78
2023/12/07 00:52:05;;;;;;;21.13;11.32;;;;;;;;;;5015877;28;20044;-80
2023/12/07 00:54:30;;;;;;;18.98;9.70;;;;;;;;;;5016650;28;20061;-80
2023/12/07 00:56:55;;;;;;;20.10;9.80;;;;;;;;;;5015144;28;20026;-80
2023/12/07 00:59:20;;;;;;;22.60;11.10;;;;;;;;;;5017827;28;20660;-80
2023/12/07 01:01:46;;;;;;;18.10;10.23;;;;;;;;;;5017309;28;20458;-78
2023/12/07 01:04:11;;;;;;;20.77;10.40;;;;;;;;;;5016028;28;20034;-79
2023/12/07 01:06:37;;;;;;;20.05;9.68;;;;;;;;;;5018995;28;20061;-79
2023/12/07 01:09:03;;;;;;;16.05;9.60;;;;;;;;;;5001963;28;20033;-79
2023/12/07 01:11:29;;;;;;;21.13;10.38;;;;;;;;;;5019525;28;20053;-81
2023/12/07 01:13:54;;;;;;;17.35;9.60;;;;;;;;;;5014031;28;20030;-80
2023/12/07 01:16:19;;;;;;;19.33;10.25;;;;;;;;;;5017259;28;20033;-79
2023/12/07 01:18:45;;;;;;;21.10;10.63;;;;;;;;;;5019108;28;20045;-80
2023/12/07 01:21:10;;;;;;;16.58;8.75;;;;;;;;;;5020021;28;20032;-80
2023/12/07 01:23:35;;;;;;;19.33;9.68;;;;;;;;;;5001275;28;20400;-79
2023/12/07 01:26:02;;;;;;;121.80;15.63;;;;;;;;;;5017443;28;20034;-78
2023/12/07 01:28:27;;;;;;;106.50;12.80;;;;;;;;;;5015674;28;20490;-80
2023/12/07 01:30:53;;;;;;;339.15;22.58;;;;;;;;;;5006774;28;20122;-80
2023/12/07 01:33:18;;;;;;;17.05;8.98;;;;;;;;;;5019743;28;20030;-80
2023/12/07 01:35:43;;;;;;;257.77;20.10;;;;;;;;;;5020559;28;20026;-80
2023/12/07 01:38:08;;;;;;;245.63;18.98;;;;;;;;;;5019541;28;20026;-79
2023/12/07 01:40:34;;;;;;;19.08;8.65;;;;;;;;;;5023718;28;20030;-80
2023/12/07 01:43:00;;;;;;;21.52;8.18;;;;;;;;;;5023012;28;20052;-79
2023/12/07 01:45:25;;;;;;;63.50;10.65;;;;;;;;;;5020266;28;20068;-78
2023/12/07 01:47:54;;;;;;;29.85;7.85;;;;;;;;;;5005319;28;20048;-79
2023/12/07 01:50:23;;;;;;;19.55;8.93;;;;;;;;;;5018972;28;20045;-80
2023/12/07 01:52:50;;;;;;;16.48;9.07;;;;;;;;;;5019205;28;20413;-79
2023/12/07 01:55:17;;;;;;;20.45;8.55;;;;;;;;;;5022718;28;20141;-80
2023/12/07 01:57:44;;;;;;;17.25;9.60;;;;;;;;;;5003940;28;20034;-79
2023/12/07 02:00:10;;;;;;;16.15;9.15;;;;;;;;;;5021243;28;20102;-79
2023/12/07 02:02:36;;;;;;;16.48;8.85;;;;;;;;;;5023603;28;20026;-80
2023/12/07 02:05:01;;;;;;;14.98;7.78;;;;;;;;;;5020049;28;20445;-80
2023/12/07 02:07:27;;;;;;;40.30;10.32;;;;;;;;;;5016315;28;20060;-79
2023/12/07 02:09:53;;;;;;;14.60;7.88;;;;;;;;;;5017311;28;20041;-79
2023/12/07 02:12:19;;;;;;;14.10;8.20;;;;;;;;;;5019749;28;20045;-78
2023/12/07 02:14:45;;;;;;;97.65;11.48;;;;;;;;;;5021515;28;20127;-79
2023/12/07 02:17:21;;;;;;;28.85;9.73;;;;;;;;;;5022720;28;20106;-79
2023/12/07 02:19:56;;;;;;;104.65;13.50;;;;;;;;;;5022662;28;20033;-79
2023/12/07 02:22:38;;;;;;;28.48;9.30;;;;;;;;;;5022133;28;20045;-79
2023/12/07 02:25:09;;;;;;;14.52;8.70;;;;;;;;;;5019801;28;20060;-79
2023/12/07 02:27:47;;;;;;;16.20;8.48;;;;;;;;;;5022405;28;20029;-79
2023/12/07 02:30:13;;;;;;;15.75;8.40;;;;;;;;;;5020713;28;20026;-79
2023/12/07 02:32:40;;;;;;;14.00;7.60;;;;;;;;;;5021541;28;20085;-79
2023/12/07 02:35:06;;;;;;;14.57;8.38;;;;;;;;;;5021248;28;20061;-79
2023/12/07 02:37:46;;;;;;;18.25;9.27;;;;;;;;;;5016870;28;20054;-81
2023/12/07 02:40:14;;;;;;;17.92;8.10;;;;;;;;;;5022287;28;20393;-78
2023/12/07 02:42:42;;;;;;;19.83;9.57;;;;;;;;;;5023561;28;20084;-79
2023/12/07 02:45:09;;;;;;;17.58;9.98;;;;;;;;;;5018752;28;20157;-78
2023/12/07 02:47:34;;;;;;;19.55;10.23;;;;;;;;;;5019357;28;20026;-80
2023/12/07 02:50:00;;;;;;;17.55;9.68;;;;;;;;;;5017276;28;20041;-80
2023/12/07 02:52:25;;;;;;;17.15;9.85;;;;;;;;;;5016843;28;20033;-80
2023/12/07 02:54:50;;;;;;;22.65;9.70;;;;;;;;;;5017726;28;20037;-80
2023/12/07 02:57:16;;;;;;;20.27;9.27;;;;;;;;;;5020684;28;20108;-79
2023/12/07 02:59:41;;;;;;;19.38;9.63;;;;;;;;;;5020723;28;20030;-79
2023/12/07 03:02:06;;;;;;;25.77;9.43;;;;;;;;;;5020048;28;20466;-79
2023/12/07 03:04:32;;;;;;;19.40;10.48;;;;;;;;;;5002265;28;20042;-79
2023/12/07 03:06:58;;;;;;;19.63;10.75;;;;;;;;;;5020715;28;20033;-79
2023/12/07 03:09:23;;;;;;;18.20;9.65;;;;;;;;;;5018642;28;20053;-79
2023/12/07 03:11:50;;;;;;;16.02;9.25;;;;;;;;;;5021435;28;20470;-80
2023/12/07 03:14:15;;;;;;;19.88;10.02;;;;;;;;;;5016274;28;20049;-80
2023/12/07 03:16:41;;;;;;;18.23;9.85;;;;;;;;;;5016373;28;20038;-77
2023/12/07 03:19:06;;;;;;;22.05;10.25;;;;;;;;;;5002001;28;20041;-79
2023/12/07 03:21:31;;;;;;;18.33;9.85;;;;;;;;;;4998344;28;20038;-79
2023/12/07 03:23:57;;;;;;;20.55;8.82;;;;;;;;;;5014677;28;20045;-79
2023/12/07 03:26:22;;;;;;;19.70;9.43;;;;;;;;;;5017501;28;20042;-80
2023/12/07 03:28:47;;;;;;;30.33;10.45;;;;;;;;;;5015078;28;20452;-79
2023/12/07 03:31:13;;;;;;;100.28;13.00;;;;;;;;;;5015358;28;20037;-79
2023/12/07 03:33:38;;;;;;;32.28;10.80;;;;;;;;;;5018702;28;20767;-78
2023/12/07 03:36:04;;;;;;;18.75;10.50;;;;;;;;;;5018847;28;20026;-78
2023/12/07 03:38:29;;;;;;;32.65;10.57;;;;;;;;;;5018943;28;20458;-79
2023/12/07 03:40:54;;;;;;;64.47;10.90;;;;;;;;;;5019118;28;20401;-80
2023/12/07 03:43:20;;;;;;;26.23;10.63;;;;;;;;;;5013037;28;20116;-78
2023/12/07 03:45:46;;;;;;;73.68;13.07;;;;;;;;;;5014356;28;20034;-79
2023/12/07 03:48:11;;;;;;;18.85;10.00;;;;;;;;;;5019022;28;20034;-79
2023/12/07 03:50:36;;;;;;;21.30;10.20;;;;;;;;;;5014851;28;20116;-80
2023/12/07 03:53:02;;;;;;;52.22;11.02;;;;;;;;;;5015001;28;20041;-78
2023/12/07 03:55:27;;;;;;;23.17;10.32;;;;;;;;;;5018408;28;20489;-79
2023/12/07 03:57:52;;;;;;;21.63;10.27;;;;;;;;;;5012605;28;20042;-80
2023/12/07 04:00:18;;;;;;;33.65;10.05;;;;;;;;;;5015278;28;20037;-79
2023/12/07 04:02:43;;;;;;;19.17;10.13;;;;;;;;;;5013226;28;20040;-79
2023/12/07 04:05:08;;;;;;;24.50;10.82;;;;;;;;;;5017960;28;20446;-78
2023/12/07 04:07:34;;;;;;;22.33;10.52;;;;;;;;;;5013725;28;20121;-80
2023/12/07 04:09:59;;;;;;;17.05;9.50;;;;;;;;;;5011737;28;20033;-79
2023/12/07 04:12:25;;;;;;;52.70;11.10;;;;;;;;;;5015989;28;20387;-78
2023/12/07 04:14:51;;;;;;;20.48;10.45;;;;;;;;;;5022503;28;20049;-77
2023/12/07 04:17:17;;;;;;;16.58;9.38;;;;;;;;;;4999879;28;20100;-79
2023/12/07 04:19:42;;;;;;;34.13;10.45;;;;;;;;;;5000551;28;20030;-79
2023/12/07 04:22:07;;;;;;;17.13;9.00;;;;;;;;;;5016960;28;20085;-78
2023/12/07 04:24:33;;;;;;;22.02;10.75;;;;;;;;;;5017275;28;20152;-78
2023/12/07 04:26:58;;;;;;;17.55;9.93;;;;;;;;;;5018528;28;20030;-78
2023/12/07 04:29:23;;;;;;;19.58;9.27;;;;;;;;;;5018212;28;20034;-78
2023/12/07 04:31:48;;;;;;;20.88;9.95;;;;;;;;;;5017737;28;20053;-78
2023/12/07 04:34:14;;;;;;;31.05;10.23;;;;;;;;;;5017450;28;20061;-78
2023/12/07 04:36:39;;;;;;;20.90;9.38;;;;;;;;;;5017181;28;20034;-78
2023/12/07 04:39:04;;;;;;;17.55;8.65;;;;;;;;;;4998314;28;20018;-78
2023/12/07 04:41:30;;;;;;;16.50;8.98;;;;;;;;;;5013324;28;20045;-80
2023/12/07 04:43:55;;;;;;;21.85;10.68;;;;;;;;;;5013280;28;20497;-78
2023/12/07 04:46:20;;;;;;;15.85;9.02;;;;;;;;;;5012695;28;20117;-80
2023/12/07 04:48:46;;;;;;;24.23;10.90;;;;;;;;;;5013519;28;20041;-77
2023/12/07 04:51:11;;;;;;;23.13;10.40;;;;;;;;;;5012910;28;20021;-79
2023/12/07 04:53:36;;;;;;;26.63;12.10;;;;;;;;;;5013781;28;20559;-80
2023/12/07 04:56:02;;;;;;;26.35;13.07;;;;;;;;;;5014072;28;20037;-78
2023/12/07 04:58:27;;;;;;;43.90;15.30;;;;;;;;;;5016096;28;20044;-80
2023/12/07 05:00:52;;;;;;;198.50;19.35;;;;;;;;;;5014038;28;20058;-78
2023/12/07 05:03:18;;;;;;;23.95;10.88;;;;;;;;;;5014364;28;20413;-78
2023/12/07 05:05:43;;;;;;;137.50;14.88;;;;;;;;;;5015942;28;21306;-79
2023/12/07 05:08:08;;;;;;;33.55;11.75;;;;;;;;;;5013877;28;20049;-78
2023/12/07 05:10:34;;;;;;;39.65;13.07;;;;;;;;;;5016857;28;20030;-78
2023/12/07 05:12:59;;;;;;;55.72;13.45;;;;;;;;;;5018936;28;20052;-78
2023/12/07 05:15:25;;;;;;;102.55;13.80;;;;;;;;;;5018415;28;20041;-77
2023/12/07 05:17:50;;;;;;;44.58;17.05;;;;;;;;;;5018878;28;20040;-78
2023/12/07 05:20:15;;;;;;;41.33;16.42;;;;;;;;;;4997523;28;20049;-78
2023/12/07 05:22:41;;;;;;;107.90;17.13;;;;;;;;;;5018722;28;20034;-79
2023/12/07 05:25:06;;;;;;;45.67;19.30;;;;;;;;;;5016560;28;20038;-79
2023/12/07 05:27:32;;;;;;;37.50;14.38;;;;;;;;;;5017609;28;20562;-79
2023/12/07 05:29:57;;;;;;;73.70;18.67;;;;;;;;;;5019601;28;20032;-78
2023/12/07 05:32:22;;;;;;;214.93;21.98;;;;;;;;;;5017405;28;20033;-78
2023/12/07 05:34:47;;;;;;;498.45;38.80;;;;;;;;;;4976947;28;20979;-78
2023/12/07 05:37:13;;;;;;;32.28;13.35;;;;;;;;;;5018141;28;20500;-77
2023/12/07 05:39:38;;;;;;;128.10;17.25;;;;;;;;;;5017745;28;20033;-77
2023/12/07 05:42:04;;;;;;;148.30;16.83;;;;;;;;;;5017011;28;20374;-77
2023/12/07 05:44:30;;;;;;;24.27;12.23;;;;;;;;;;5016546;28;20029;-79
2023/12/07 05:46:57;;;;;;;29.15;11.07;;;;;;;;;;5016933;28;20037;-78
2023/12/07 05:49:23;;;;;;;28.02;10.30;;;;;;;;;;5011824;28;20034;-78
2023/12/07 05:51:48;;;;;;;22.85;11.00;;;;;;;;;;5018701;28;20042;-77
2023/12/07 05:54:14;;;;;;;24.35;12.35;;;;;;;;;;5017988;28;20061;-78
2023/12/07 05:56:40;;;;;;;293.88;20.27;;;;;;;;;;5016823;28;20022;-79
2023/12/07 05:59:06;;;;;;;92.68;11.57;;;;;;;;;;5012802;28;20031;-78
2023/12/07 06:01:31;;;;;;;1395.57;80.93;;;;;;;;;;5016459;28;20034;-79
2023/12/07 06:03:57;;;;;;;28.05;10.40;;;;;;;;;;5019400;28;20053;-79
2023/12/07 06:06:22;;;;;;;108.57;12.25;;;;;;;;;;5000492;28;20395;-78
2023/12/07 06:08:48;;;;;;;73.70;10.18;;;;;;;;;;5006044;28;20034;-79
2023/12/07 06:11:13;;;;;;;88.45;10.70;;;;;;;;;;5018369;28;20094;-79
2023/12/07 06:13:38;;;;;;;652.08;37.22;;;;;;;;;;5017563;28;20042;-77
2023/12/07 06:16:04;;;;;;;91.50;9.48;;;;;;;;;;5017621;28;20038;-79
2023/12/07 06:18:30;;;;;;;756.35;44.10;;;;;;;;;;5015318;28;20038;-79
2023/12/07 06:20:55;;;;;;;16.00;8.93;;;;;;;;;;5011438;28;20029;-77
2023/12/07 06:23:21;;;;;;;288.90;15.23;;;;;;;;;;5017972;28;20030;-77
2023/12/07 06:25:46;;;;;;;658.88;40.38;;;;;;;;;;4992805;28;20076;-79
2023/12/07 06:28:12;;;;;;;31.38;9.38;;;;;;;;;;5018056;28;20037;-77
2023/12/07 06:30:38;;;;;;;634.10;35.75;;;;;;;;;;5016999;28;20076;-79
2023/12/07 06:35:31;;;;;;;145.48;12.98;;;;;;;;;;5017906;28;20061;-80
2023/12/07 06:37:56;;;;;;;119.00;11.20;;;;;;;;;;5009393;28;20033;-78
2023/12/07 06:40:21;;;;;;;20.05;8.02;;;;;;;;;;5015763;28;20065;-78
2023/12/07 06:42:48;;;;;;;15.20;8.93;;;;;;;;;;5029726;28;20061;-81
2023/12/07 06:45:14;;;;;;;19.73;10.95;;;;;;;;;;5014564;28;20034;-78
2023/12/07 06:47:42;;;;;;;17.95;9.73;;;;;;;;;;4991967;28;20026;-78
2023/12/07 06:50:11;;;;;;;125.35;15.23;;;;;;;;;;5009053;28;20041;-79
2023/12/07 06:52:37;;;;;;;16.70;8.48;;;;;;;;;;5010306;28;20501;-78
2023/12/07 06:55:02;;;;;;;54.55;9.80;;;;;;;;;;5014178;28;20075;-82
2023/12/07 06:57:28;;;;;;;17.00;8.77;;;;;;;;;;5017378;28;20122;-79
2023/12/07 06:59:53;;;;;;;15.63;8.18;;;;;;;;;;5015862;28;20030;-79
2023/12/07 07:02:18;;;;;;;58.17;9.88;;;;;;;;;;5016887;28;20056;-79
2023/12/07 07:04:44;;;;;;;16.83;8.48;;;;;;;;;;4997461;28;20101;-79
2023/12/07 07:07:09;;;;;;;17.38;9.77;;;;;;;;;;5010323;28;20098;-79
2023/12/07 07:09:34;;;;;;;26.00;8.73;;;;;;;;;;5015640;28;20840;-79
2023/12/07 07:12:00;;;;;;;99.72;10.68;;;;;;;;;;5007463;28;20046;-79
2023/12/07 07:14:25;;;;;;;44.50;8.18;;;;;;;;;;5014969;28;20497;-79
2023/12/07 07:16:51;;;;;;;12.52;5.85;;;;;;;;;;5006128;28;20031;-79
2023/12/07 07:19:17;;;;;;;12.70;6.70;;;;;;;;;;5004925;28;20042;-78
2023/12/07 07:21:43;;;;;;;26.15;9.18;;;;;;;;;;5014225;28;20032;-78
2023/12/07 07:24:08;;;;;;;63.40;12.00;;;;;;;;;;5017291;28;20060;-79
2023/12/07 07:26:34;;;;;;;87.03;11.85;;;;;;;;;;5019507;28;20041;-79
2023/12/07 07:28:59;;;;;;;63.78;11.55;;;;;;;;;;5013779;28;20039;-79
2023/12/07 07:31:24;;;;;;;18.90;8.93;;;;;;;;;;5007226;28;20061;-79
2023/12/07 07:33:50;;;;;;;709.78;45.67;;;;;;;;;;5016532;28;20045;-79
2023/12/07 07:36:15;;;;;;;94.53;17.45;;;;;;;;;;5011433;28;20349;-79
2023/12/07 07:38:41;;;;;;;18.35;8.20;;;;;;;;;;5012951;28;20022;-78
2023/12/07 07:41:07;;;;;;;20.60;10.32;;;;;;;;;;5011027;28;20034;-79
2023/12/07 07:43:34;;;;;;;305.83;23.65;;;;;;;;;;5016316;28;20466;-79
2023/12/07 07:45:59;;;;;;;38.63;10.90;;;;;;;;;;5015800;28;20510;-79
2023/12/07 07:48:25;;;;;;;18.17;8.73;;;;;;;;;;5017165;28;20062;-79
2023/12/07 07:50:51;;;;;;;1023.85;57.88;;;;;;;;;;5015253;28;20026;-79
2023/12/07 07:53:16;;;;;;;143.40;15.40;;;;;;;;;;5016506;28;20838;-79
2023/12/07 07:55:42;;;;;;;44.10;10.20;;;;;;;;;;5017103;28;20065;-78
2023/12/07 07:58:07;;;;;;;22.08;9.05;;;;;;;;;;5018167;28;20030;-79
2023/12/07 08:00:34;;;;;;;25.80;10.70;;;;;;;;;;5009838;28;20065;-79
2023/12/07 08:02:59;;;;;;;25.02;11.85;;;;;;;;;;5013861;28;20022;-79
2023/12/07 08:05:24;;;;;;;36.65;11.35;;;;;;;;;;5013226;28;20046;-79
2023/12/07 08:07:51;;;;;;;28.33;12.73;;;;;;;;;;5000262;28;20042;-79
2023/12/07 08:10:16;;;;;;;20.55;11.88;;;;;;;;;;5011273;28;20049;-79
2023/12/07 08:12:41;;;;;;;20.58;9.98;;;;;;;;;;5015756;28;20029;-79
2023/12/07 08:15:10;;;;;;;19.38;10.43;;;;;;;;;;5018011;28;20038;-79
2023/12/07 08:17:37;;;;;;;23.73;12.93;;;;;;;;;;5014566;28;20081;-79
2023/12/07 08:20:03;;;;;;;26.50;15.27;;;;;;;;;;5010432;28;20038;-78
2023/12/07 08:22:28;;;;;;;19.52;8.88;;;;;;;;;;5008420;28;20065;-79
2023/12/07 08:24:54;;;;;;;14.90;9.05;;;;;;;;;;5016769;28;20050;-79
2023/12/07 08:27:19;;;;;;;20.60;11.95;;;;;;;;;;5016514;28;20052;-79
2023/12/07 08:29:44;;;;;;;16.10;9.85;;;;;;;;;;5006596;28;20041;-79
2023/12/07 08:32:09;;;;;;;17.33;8.82;;;;;;;;;;5012203;28;20034;-79
2023/12/07 08:34:37;;;;;;;18.85;9.75;;;;;;;;;;5016888;28;20049;-79
2023/12/07 08:37:03;;;;;;;15.10;8.63;;;;;;;;;;5009610;28;20315;-79
2023/12/07 08:39:28;;;;;;;17.73;9.60;;;;;;;;;;5016897;28;20030;-80
2023/12/07 08:41:53;;;;;;;18.60;9.35;;;;;;;;;;5010619;28;20505;-80
2023/12/07 08:44:19;;;;;;;14.13;8.90;;;;;;;;;;5021266;28;20038;-79
2023/12/07 08:46:45;;;;;;;22.35;7.97;;;;;;;;;;5016595;28;20050;-79
2023/12/07 08:49:10;;;;;;;21.92;10.20;;;;;;;;;;5013136;28;20034;-78
2023/12/07 08:51:36;;;;;;;17.52;8.45;;;;;;;;;;5006646;28;20121;-79
2023/12/07 08:54:01;;;;;;;12.23;6.80;;;;;;;;;;5020546;28;20544;-78
2023/12/07 08:56:27;;;;;;;11.35;7.20;;;;;;;;;;5014834;28;20456;-78
2023/12/07 08:58:52;;;;;;;12.88;7.88;;;;;;;;;;5009670;28;20034;-78
2023/12/07 09:01:17;;;;;;;13.00;7.35;;;;;;;;;;5012691;28;20044;-79
2023/12/07 09:03:42;;;;;;;9.70;6.57;;;;;;;;;;5018369;28;20129;-79
2023/12/07 09:06:08;;;;;;;8.48;5.63;;;;;;;;;;5010910;28;20022;-78
2023/12/07 09:08:33;;;;;;;13.25;7.25;;;;;;;;;;5014126;28;20449;-78
2023/12/07 09:10:59;;;;;;;10.75;6.55;;;;;;;;;;5005429;28;20508;-78
2023/12/07 09:13:24;;;;;;;9.15;5.78;;;;;;;;;;5013520;28;20049;-79
2023/12/07 09:15:50;;;;;;;7.75;5.22;;;;;;;;;;5002097;28;20039;-79
2023/12/07 09:18:15;;;;;;;9.98;6.15;;;;;;;;;;4998007;28;20508;-79
2023/12/07 09:20:49;;;;;;;7.90;5.03;;;;;;;;;;5012047;28;20042;-78
2023/12/07 09:23:15;;;;;;;;;;;;;;;;;;5003860;28;20034;-79
2023/12/07 09:25:40;;;;;;;7.90;4.68;;;;;;;;;;5018110;28;20007;-79
2023/12/07 09:28:06;;;;;;;6.72;5.00;;;;;;;;;;5021139;28;20034;-79
2023/12/07 09:30:33;;;;;;;8.50;5.88;;;;;;;;;;5005090;28;20525;-78
2023/12/07 09:32:59;;;;;;;7.28;5.47;;;;;;;;;;5014237;28;20038;-79
2023/12/07 09:35:24;;;;;;;6.13;4.10;;;;;;;;;;5019109;28;20113;-79
2023/12/07 09:37:49;;;;;;;9.65;5.20;;;;;;;;;;5013506;28;20121;-79
2023/12/07 09:40:19;;;;;;;6.15;4.72;;;;;;;;;;5014812;28;20056;-79
2023/12/07 09:42:48;;;;;;;7.50;5.22;;;;;;;;;;5020735;28;20137;-79
2023/12/07 09:45:16;;;;;;;5.75;4.00;;;;;;;;;;5011828;28;20034;-79
2023/12/07 09:47:42;;;;;;;5.75;4.43;;;;;;;;;;5011699;28;20026;-78
2023/12/07 09:50:08;;;;;;;6.30;4.22;;;;;;;;;;5015480;28;20068;-79
2023/12/07 09:52:35;;;;;;;4.30;3.67;;;;;;;;;;5011778;28;20038;-78
2023/12/07 09:55:05;;;;;;;3.97;3.47;;;;;;;;;;5019562;28;20042;-79
2023/12/07 09:57:31;;;;;;;6.32;3.28;;;;;;;;;;5013979;28;20525;-78
2023/12/07 09:59:56;;;;;;;4.95;3.55;;;;;;;;;;5013899;28;20049;-79
2023/12/07 10:02:22;;;;;;;5.18;3.97;;;;;;;;;;5020110;28;20041;-78
2023/12/07 10:04:49;;;;;;;7.03;4.50;;;;;;;;;;5016772;28;20038;-79
2023/12/07 10:07:14;;;;;;;4.72;3.63;;;;;;;;;;5011168;28;20128;-79
2023/12/07 10:09:40;;;;;;;5.50;3.92;;;;;;;;;;5018620;28;20069;-79
2023/12/07 10:12:06;;;;;;;5.65;4.15;;;;;;;;;;4996216;28;20037;-78
2023/12/07 10:14:32;;;;;;;5.28;3.90;;;;;;;;;;5008272;28;20018;-79
2023/12/07 10:16:59;;;;;;;9.77;3.60;;;;;;;;;;5018657;28;20088;-79
2023/12/07 10:19:25;;;;;;;4.28;3.75;;;;;;;;;;5014894;28;20045;-78
2023/12/07 10:21:54;;;;;;;3.50;3.05;;;;;;;;;;5008340;28;20034;-78
2023/12/07 10:24:21;;;;;;;3.20;2.92;;;;;;;;;;5012769;28;20034;-78
2023/12/07 10:26:48;;;;;;;4.15;3.38;;;;;;;;;;5006202;28;20030;-79
2023/12/07 10:29:13;;;;;;;6.93;3.63;;;;;;;;;;5013046;28;20125;-78
2023/12/07 10:31:38;;;;;;;5.55;2.90;;;;;;;;;;5002101;28;20065;-78
2023/12/07 10:34:06;;;;;;;4.95;3.42;;;;;;;;;;5000912;28;20049;-79
2023/12/07 10:36:35;;;;;;;6.45;3.88;;;;;;;;;;5009055;28;20047;-79
2023/12/07 10:39:00;;;;;;;3.38;2.78;;;;;;;;;;5017301;28;20030;-79
2023/12/07 10:41:26;;;;;;;4.07;3.15;;;;;;;;;;5012096;28;20045;-79
2023/12/07 10:44:00;;;;;;;5.35;3.63;;;;;;;;;;5019517;28;20042;-79
2023/12/07 10:46:26;;;;;;;5.22;3.40;;;;;;;;;;5004204;28;20038;-82
2023/12/07 10:48:59;;;;;;;5.55;3.70;;;;;;;;;;5000874;28;20034;-79
2023/12/07 10:51:46;;;;;;;4.78;3.67;;;;;;;;;;5013619;28;20066;-79
2023/12/07 10:54:15;;;;;;;5.13;3.50;;;;;;;;;;4989562;28;20026;-79
2023/12/07 10:56:44;;;;;;;3.35;2.78;;;;;;;;;;5002741;28;20644;-80
2023/12/07 10:59:14;;;;;;;5.55;3.58;;;;;;;;;;5011902;28;20033;-80
2023/12/07 11:01:40;;;;;;;5.18;2.60;;;;;;;;;;5010678;28;20118;-79
2023/12/07 11:04:06;;;;;;;2.85;2.45;;;;;;;;;;5011710;28;20056;-79
2023/12/07 11:06:33;;;;;;;4.70;3.47;;;;;;;;;;5003913;28;20042;-79
2023/12/07 11:09:01;;;;;;;3.75;3.35;;;;;;;;;;5013655;28;20042;-79
2023/12/07 11:11:39;;;;;;;4.45;3.60;;;;;;;;;;5003999;28;20035;-79
2023/12/07 11:14:06;;;;;;;4.40;3.40;;;;;;;;;;5009097;28;20034;-79
2023/12/07 11:16:35;;;;;;;3.45;3.10;;;;;;;;;;5001992;28;20405;-79
2023/12/07 11:19:00;;;;;;;4.43;3.40;;;;;;;;;;5006744;28;20430;-79
2023/12/07 11:21:26;;;;;;;5.22;3.08;;;;;;;;;;5011743;28;20045;-79
2023/12/07 11:23:53;;;;;;;5.05;3.50;;;;;;;;;;5006402;28;20027;-79
2023/12/07 11:26:22;;;;;;;3.40;2.88;;;;;;;;;;5007493;28;20037;-79
2023/12/07 11:28:47;;;;;;;4.00;3.13;;;;;;;;;;5007009;28;20045;-79
2023/12/07 11:31:13;;;;;;;2.90;2.50;;;;;;;;;;5005419;28;20362;-80
2023/12/07 11:33:39;;;;;;;3.95;2.83;;;;;;;;;;5004927;28;20065;-79
2023/12/07 11:36:07;;;;;;;2.95;2.40;;;;;;;;;;5013366;28;20037;-79
2023/12/07 11:38:32;;;;;;;5.28;3.58;;;;;;;;;;5005189;28;20033;-80
2023/12/07 11:40:57;;;;;;;4.32;3.08;;;;;;;;;;5006135;28;20031;-79
2023/12/07 11:43:32;;;;;;;2.42;2.22;;;;;;;;;;4995133;28;20129;-79
2023/12/07 11:45:58;;;;;;;4.63;2.45;;;;;;;;;;4993247;28;20044;-79
2023/12/07 11:48:24;;;;;;;2.13;1.92;;;;;;;;;;5011206;28;20472;-79
2023/12/07 11:51:03;;;;;;;3.83;3.15;;;;;;;;;;5004047;28;20089;-79
2023/12/07 11:53:33;;;;;;;4.68;2.67;;;;;;;;;;5016457;28;20433;-79
2023/12/07 11:56:00;;;;;;;3.40;3.10;;;;;;;;;;4999815;28;20030;-79
2023/12/07 11:58:27;;;;;;;3.28;2.63;;;;;;;;;;5012968;28;20053;-79
2023/12/07 12:00:57;;;;;;;3.92;3.45;;;;;;;;;;5015691;28;20041;-79
2023/12/07 12:03:26;;;;;;;4.85;3.25;;;;;;;;;;4999429;28;20034;-79
2023/12/07 12:05:52;;;;;;;6.43;3.85;;;;;;;;;;5003326;28;20311;-79
2023/12/07 12:08:18;;;;;;;4.07;3.00;;;;;;;;;;5007063;28;20452;-79
2023/12/07 12:10:45;;;;;;;3.15;2.80;;;;;;;;;;4992341;28;20065;-80
2023/12/07 12:13:11;;;;;;;3.60;2.40;;;;;;;;;;5009064;28;20034;-79
2023/12/07 12:15:38;;;;;;;4.35;3.22;;;;;;;;;;4999686;28;20037;-79
2023/12/07 12:18:04;;;;;;;7.32;4.13;;;;;;;;;;5009630;28;20026;-80
2023/12/07 12:20:30;;;;;;;5.95;4.07;;;;;;;;;;4999688;28;20026;-80
2023/12/07 12:22:55;;;;;;;4.57;3.75;;;;;;;;;;4983063;28;20069;-79
2023/12/07 12:25:25;;;;;;;4.20;3.80;;;;;;;;;;5008850;28;20034;-79
2023/12/07 12:27:52;;;;;;;5.97;3.50;;;;;;;;;;5007525;28;20121;-79
2023/12/07 12:30:18;;;;;;;6.03;3.63;;;;;;;;;;5011851;28;20033;-79
2023/12/07 12:32:44;;;;;;;5.05;3.83;;;;;;;;;;5017170;28;20025;-79
2023/12/07 12:35:10;;;;;;;8.23;3.88;;;;;;;;;;5010866;28;20061;-82
2023/12/07 12:37:36;;;;;;;4.50;3.85;;;;;;;;;;5004976;28;20416;-82
2023/12/07 12:40:06;;;;;;;4.05;3.25;;;;;;;;;;4998336;28;20038;-82
2023/12/07 12:42:32;;;;;;;8.23;3.50;;;;;;;;;;5000752;28;20084;-82
2023/12/07 12:44:57;;;;;;;3.80;3.10;;;;;;;;;;5004669;28;20462;-83
2023/12/07 12:47:23;;;;;;;4.80;2.63;;;;;;;;;;5001443;28;20045;-82
2023/12/07 12:49:48;;;;;;;5.43;3.65;;;;;;;;;;5004922;28;20156;-82
2023/12/07 12:52:17;;;;;;;5.70;4.18;;;;;;;;;;5003581;28;20133;-83
2023/12/07 12:54:43;;;;;;;8.43;3.53;;;;;;;;;;4999993;28;20034;-82
2023/12/07 12:57:09;;;;;;;5.88;4.03;;;;;;;;;;5000939;28;20022;-82
2023/12/07 12:59:35;;;;;;;8.02;3.60;;;;;;;;;;5003141;28;20531;-82
2023/12/07 13:02:00;;;;;;;4.90;3.55;;;;;;;;;;5003090;28;20056;-82
2023/12/07 13:04:25;;;;;;;5.13;3.95;;;;;;;;;;5001122;28;20129;-83
2023/12/07 13:06:51;;;;;;;5.35;3.55;;;;;;;;;;4999146;28;20034;-83
2023/12/07 13:09:16;;;;;;;3.28;2.92;;;;;;;;;;5001248;28;20033;-83
2023/12/07 13:11:42;;;;;;;7.63;3.33;;;;;;;;;;5003712;28;20030;-82
2023/12/07 13:14:07;;;;;;;4.22;3.13;;;;;;;;;;5003591;28;20034;-82
2023/12/07 13:16:33;;;;;;;5.40;3.72;;;;;;;;;;4989094;28;20121;-83
2023/12/07 13:18:58;;;;;;;3.03;2.72;;;;;;;;;;5001993;28;20053;-82
2023/12/07 13:21:23;;;;;;;3.90;3.15;;;;;;;;;;4997039;28;20570;-82
2023/12/07 13:23:49;;;;;;;4.82;3.70;;;;;;;;;;4985845;28;20034;-81
2023/12/07 13:26:14;;;;;;;4.57;3.90;;;;;;;;;;4978539;28;20109;-82
2023/12/07 13:28:41;;;;;;;4.78;3.65;;;;;;;;;;4999253;28;20023;-82
2023/12/07 13:31:06;;;;;;;6.55;3.90;;;;;;;;;;4998426;28;20476;-83
2023/12/07 13:33:31;;;;;;;5.07;3.67;;;;;;;;;;5006524;28;20060;-84
2023/12/07 13:35:57;;;;;;;5.25;4.22;;;;;;;;;;5005041;28;20030;-83
2023/12/07 13:38:23;;;;;;;6.40;5.00;;;;;;;;;;5012777;28;20029;-83
2023/12/07 13:40:49;;;;;;;5.45;3.67;;;;;;;;;;5003990;28;20470;-83
2023/12/07 13:43:14;;;;;;;5.18;3.88;;;;;;;;;;5009322;28;20034;-83
2023/12/07 13:45:39;;;;;;;5.88;3.90;;;;;;;;;;5005737;28;20035;-82
2023/12/07 13:48:05;;;;;;;4.22;3.65;;;;;;;;;;5002124;28;20061;-83
2023/12/07 13:50:30;;;;;;;5.70;3.80;;;;;;;;;;5008693;28;20025;-83
2023/12/07 13:52:56;;;;;;;5.15;3.88;;;;;;;;;;5004258;28;20438;-83
2023/12/07 13:55:23;;;;;;;4.78;3.40;;;;;;;;;;5006091;28;20038;-82
2023/12/07 13:57:48;;;;;;;4.95;4.05;;;;;;;;;;5002470;28;20092;-83
2023/12/07 14:00:14;;;;;;;5.15;3.58;;;;;;;;;;5010949;28;20444;-83
2023/12/07 14:02:39;;;;;;;4.40;2.92;;;;;;;;;;4999093;28;20017;-83
2023/12/07 14:05:05;;;;;;;3.38;3.03;;;;;;;;;;5002924;28;20100;-83
2023/12/07 14:07:30;;;;;;;4.32;3.30;;;;;;;;;;5001689;28;20031;-81
2023/12/07 14:09:56;;;;;;;2.75;2.55;;;;;;;;;;5008526;28;20050;-81
2023/12/07 14:12:21;;;;;;;3.72;3.20;;;;;;;;;;5001611;28;20053;-81
2023/12/07 14:14:47;;;;;;;4.32;3.40;;;;;;;;;;5005598;28;20105;-82
2023/12/07 14:17:13;;;;;;;4.28;3.15;;;;;;;;;;5006397;28;20524;-83
2023/12/07 14:19:39;;;;;;;2.75;2.30;;;;;;;;;;5005180;28;20030;-83
2023/12/07 14:22:05;;;;;;;4.68;3.45;;;;;;;;;;5003089;28;20438;-85
2023/12/07 14:24:30;;;;;;;3.75;2.90;;;;;;;;;;5008435;28;20037;-83
2023/12/07 14:26:57;;;;;;;4.45;2.97;;;;;;;;;;5008239;28;20091;-82